Time;durP1;ratioP1;P1;durP2;ratioP2;P2;SDS_P1;SDS_P2;PMS_P1;PMS_P2;Temp;Humidity;BMP_temperature;BMP_pressure;BME280_temperature;BME280_humidity;BME280_pressure;Samples;Min_cycle;Max_cycle;Signal;HPM_P1;HPM_P2
2022/09/02 00:01:48;;;;;;;7.60;5.47;;;16.10;81.80;;;;;;5025826;28;20213;-70
2022/09/02 00:04:20;;;;;;;5.90;5.13;;;16.10;81.90;;;;;;5027429;28;20182;-72
2022/09/02 00:06:47;;;;;;;10.63;5.27;;;16.00;82.20;;;;;;5027333;28;20438;-71
2022/09/02 00:09:15;;;;;;;6.33;6.00;;;16.00;82.50;;;;;;5029661;28;20793;-72
2022/09/02 00:11:43;;;;;;;7.80;5.43;;;15.90;82.70;;;;;;5027576;28;20589;-70
2022/09/02 00:14:13;;;;;;;6.53;5.20;;;15.90;82.80;;;;;;5030138;28;20941;-69
2022/09/02 00:16:41;;;;;;;8.77;5.60;;;15.80;82.80;;;;;;5015929;28;20495;-71
2022/09/02 00:19:07;;;;;;;6.43;5.40;;;15.80;82.80;;;;;;5029842;28;20598;-71
2022/09/02 00:21:33;;;;;;;7.53;5.00;;;15.70;82.80;;;;;;5014078;28;20536;-70
2022/09/02 00:24:01;;;;;;;7.20;5.30;;;15.70;83.30;;;;;;5038930;28;20530;-71
2022/09/02 00:26:27;;;;;;;6.33;5.30;;;15.70;82.80;;;;;;5032365;28;20511;-71
2022/09/02 00:28:53;;;;;;;8.23;5.73;;;15.60;83.30;;;;;;5031135;28;20458;-70
2022/09/02 00:31:19;;;;;;;9.30;5.53;;;15.50;83.40;;;;;;5007660;28;20300;-68
2022/09/02 00:33:45;;;;;;;8.73;5.43;;;15.50;83.80;;;;;;5029030;28;20432;-70
2022/09/02 00:36:12;;;;;;;12.40;5.40;;;15.50;84.00;;;;;;5026638;28;20510;-70
2022/09/02 00:38:38;;;;;;;6.50;5.10;;;15.40;83.80;;;;;;5009515;28;20562;-70
2022/09/02 00:41:07;;;;;;;6.27;5.20;;;15.40;83.70;;;;;;5022822;28;21077;-69
2022/09/02 00:43:48;;;;;;;6.13;5.40;;;15.40;84.00;;;;;;5022674;28;20434;-71
2022/09/02 00:46:17;;;;;;;6.20;4.93;;;15.40;84.00;;;;;;5021669;28;20845;-69
2022/09/02 00:48:48;;;;;;;9.23;5.03;;;15.40;84.00;;;;;;5003675;28;20489;-69
2022/09/02 00:51:15;;;;;;;6.40;5.03;;;15.40;83.80;;;;;;5022787;28;20556;-69
2022/09/02 00:53:43;;;;;;;7.13;5.30;;;15.40;83.80;;;;;;5020823;28;20486;-71
2022/09/02 00:56:13;;;;;;;9.80;5.40;;;15.40;83.80;;;;;;5024279;28;20427;-71
2022/09/02 00:58:41;;;;;;;8.60;5.37;;;15.40;83.80;;;;;;5020052;28;20463;-70
2022/09/02 01:01:10;;;;;;;6.47;4.90;;;15.40;83.70;;;;;;5021964;28;20460;-70
2022/09/02 01:03:36;;;;;;;14.77;5.50;;;15.30;83.70;;;;;;5011418;28;20538;-70
2022/09/02 01:06:02;;;;;;;5.87;4.83;;;15.30;83.60;;;;;;5026500;28;20422;-72
2022/09/02 01:08:33;;;;;;;7.53;5.47;;;15.30;83.70;;;;;;5028865;28;20428;-71
2022/09/02 01:11:00;;;;;;;8.80;6.03;;;15.30;83.70;;;;;;5026633;28;20295;-72
2022/09/02 01:13:28;;;;;;;7.60;4.90;;;15.20;83.70;;;;;;5030821;28;20431;-71
2022/09/02 01:16:26;;;;;;;6.83;5.13;;;15.20;83.80;;;;;;5032558;28;20453;-72
2022/09/02 01:18:54;;;;;;;5.90;4.90;;;15.20;83.70;;;;;;4932889;29;20492;-72
2022/09/02 01:21:22;;;;;;;6.77;5.33;;;15.10;84.00;;;;;;4932043;29;20507;-72
2022/09/02 01:23:48;;;;;;;7.67;5.20;;;15.20;84.00;;;;;;4940811;29;20461;-70
2022/09/02 01:26:13;;;;;;;6.17;5.40;;;15.10;84.10;;;;;;4935095;29;20435;-71
2022/09/02 01:28:40;;;;;;;8.67;5.50;;;15.10;84.30;;;;;;4933976;29;20444;-71
2022/09/02 01:31:05;;;;;;;7.00;5.87;;;15.10;84.30;;;;;;4933625;29;20638;-71
2022/09/02 01:33:31;;;;;;;8.53;5.90;;;15.00;84.40;;;;;;4936586;29;20540;-70
2022/09/02 01:35:57;;;;;;;6.90;5.30;;;14.90;84.60;;;;;;4936573;29;20265;-71
2022/09/02 01:38:24;;;;;;;8.37;5.20;;;14.90;84.90;;;;;;4932425;29;20561;-70
2022/09/02 01:40:51;;;;;;;7.50;5.97;;;14.90;84.70;;;;;;4937450;29;20633;-71
2022/09/02 01:43:21;;;;;;;7.90;5.30;;;14.90;84.60;;;;;;4949777;28;20416;-72
2022/09/02 01:45:48;;;;;;;7.97;5.17;;;14.80;85.00;;;;;;4932869;29;20548;-71
2022/09/02 01:48:15;;;;;;;7.70;5.83;;;14.90;85.20;;;;;;4935045;29;20431;-71
2022/09/02 01:50:44;;;;;;;7.80;5.30;;;14.90;84.90;;;;;;4937323;29;20790;-71
2022/09/02 01:53:10;;;;;;;8.97;6.10;;;14.90;84.70;;;;;;4933467;29;20479;-70
2022/09/02 01:55:36;;;;;;;8.10;5.50;;;14.80;84.70;;;;;;4995505;28;20479;-71
2022/09/02 01:58:02;;;;;;;11.23;6.70;;;14.70;84.90;;;;;;5032009;28;20223;-71
2022/09/02 02:00:28;;;;;;;8.13;5.47;;;14.70;84.90;;;;;;5031034;28;20818;-70
2022/09/02 02:02:54;;;;;;;7.80;5.60;;;14.60;85.20;;;;;;5029212;28;20456;-71
2022/09/02 02:05:19;;;;;;;6.80;4.93;;;14.60;85.30;;;;;;5031378;28;20606;-71
2022/09/02 02:07:45;;;;;;;8.33;5.27;;;14.60;85.60;;;;;;5030390;28;20197;-71
2022/09/02 02:10:12;;;;;;;8.00;5.97;;;14.60;85.60;;;;;;5030360;28;20218;-71
2022/09/02 02:12:39;;;;;;;10.93;5.50;;;14.60;85.60;;;;;;5026808;28;20290;-71
2022/09/02 02:15:07;;;;;;;6.40;5.37;;;14.60;85.30;;;;;;5033204;28;20898;-72
2022/09/02 02:17:33;;;;;;;7.23;4.93;;;14.60;85.00;;;;;;5024833;28;20494;-72
2022/09/02 02:19:59;;;;;;;6.47;4.90;;;14.60;85.20;;;;;;5032923;28;21274;-72
2022/09/02 02:22:25;;;;;;;9.40;5.63;;;14.60;85.00;;;;;;5027031;28;20202;-72
2022/09/02 02:24:52;;;;;;;7.03;5.20;;;14.60;84.70;;;;;;5028587;28;20222;-71
2022/09/02 02:27:17;;;;;;;8.20;5.63;;;14.70;84.40;;;;;;5027399;28;20866;-71
2022/09/02 02:29:43;;;;;;;8.80;6.10;;;14.60;84.60;;;;;;5032420;28;20514;-72
2022/09/02 02:32:08;;;;;;;6.40;4.60;;;14.60;84.70;;;;;;5017204;28;20204;-71
2022/09/02 02:34:34;;;;;;;5.70;4.80;;;14.60;84.60;;;;;;5015630;28;20189;-72
2022/09/02 02:37:00;;;;;;;7.37;4.20;;;14.60;84.30;;;;;;5013722;28;20187;-71
2022/09/02 02:39:26;;;;;;;8.70;4.30;;;14.60;84.30;;;;;;5031485;28;20692;-71
2022/09/02 02:41:51;;;;;;;5.80;4.27;;;14.60;84.00;;;;;;5026300;28;20212;-71
2022/09/02 02:44:17;;;;;;;6.27;4.10;;;14.50;84.00;;;;;;5030935;28;20454;-71
2022/09/02 02:46:42;;;;;;;5.47;5.10;;;14.60;84.40;;;;;;5011760;28;20576;-71
2022/09/02 02:49:09;;;;;;;6.00;4.50;;;14.60;84.40;;;;;;5030418;28;20201;-70
2022/09/02 02:51:35;;;;;;;5.83;4.63;;;14.50;84.70;;;;;;5010280;28;20287;-71
2022/09/02 02:54:02;;;;;;;6.40;4.57;;;14.50;84.90;;;;;;5031804;28;20459;-70
2022/09/02 02:56:29;;;;;;;7.00;4.73;;;14.50;84.90;;;;;;5026451;28;20822;-71
2022/09/02 02:58:55;;;;;;;8.33;5.07;;;14.40;84.90;;;;;;5029913;28;20475;-71
2022/09/02 03:01:22;;;;;;;5.40;4.53;;;14.30;85.20;;;;;;5027898;28;20459;-71
2022/09/02 03:03:47;;;;;;;10.90;5.70;;;14.30;85.50;;;;;;5035247;28;20455;-72
2022/09/02 03:06:13;;;;;;;9.10;6.00;;;14.30;85.60;;;;;;5028481;28;20841;-69
2022/09/02 03:08:39;;;;;;;7.83;4.57;;;14.20;86.60;;;;;;5011836;28;20193;-71
2022/09/02 03:11:05;;;;;;;7.20;5.67;;;14.20;86.90;;;;;;5022888;28;20479;-71
2022/09/02 03:13:33;;;;;;;8.03;5.67;;;14.20;86.90;;;;;;5030412;28;20241;-72
2022/09/02 03:15:58;;;;;;;7.80;4.90;;;14.10;87.10;;;;;;5041426;28;20459;-71
2022/09/02 03:18:24;;;;;;;6.37;4.63;;;14.10;87.30;;;;;;5026241;28;20461;-71
2022/09/02 03:20:50;;;;;;;6.13;4.73;;;14.10;87.30;;;;;;5028915;28;20632;-70
2022/09/02 03:23:17;;;;;;;6.83;5.00;;;14.20;87.10;;;;;;5022029;28;20235;-71
2022/09/02 03:25:44;;;;;;;8.33;4.87;;;14.10;86.90;;;;;;5028023;28;20420;-72
2022/09/02 03:28:11;;;;;;;6.17;5.20;;;14.10;87.10;;;;;;5025487;28;20435;-71
2022/09/02 03:30:38;;;;;;;5.60;4.30;;;14.10;87.30;;;;;;5028710;28;20516;-71
2022/09/02 03:33:04;;;;;;;5.33;4.47;;;14.10;87.30;;;;;;5022819;28;20435;-70
2022/09/02 03:35:32;;;;;;;7.33;5.00;;;14.00;87.30;;;;;;5030367;28;20979;-71
2022/09/02 03:37:59;;;;;;;6.77;5.00;;;14.00;87.40;;;;;;5030248;28;20475;-71
2022/09/02 03:40:26;;;;;;;6.13;5.00;;;14.00;87.40;;;;;;5031291;28;20427;-73
2022/09/02 03:42:52;;;;;;;5.60;4.80;;;14.00;87.30;;;;;;5022782;28;20463;-72
2022/09/02 03:45:18;;;;;;;4.87;4.23;;;13.90;87.40;;;;;;5031141;28;20985;-71
2022/09/02 03:47:53;;;;;;;6.37;5.20;;;13.90;87.40;;;;;;5029478;28;20432;-73
2022/09/02 03:50:25;;;;;;;5.30;4.50;;;13.80;87.70;;;;;;5029887;28;20212;-73
2022/09/02 03:52:52;;;;;;;5.90;5.20;;;13.80;87.80;;;;;;5027097;28;20466;-73
2022/09/02 03:55:18;;;;;;;7.30;4.70;;;13.80;87.80;;;;;;5030883;28;20446;-73
2022/09/02 03:57:44;;;;;;;6.33;4.70;;;13.70;87.80;;;;;;5028631;28;20961;-72
2022/09/02 04:00:12;;;;;;;5.07;4.67;;;13.70;88.00;;;;;;5011692;28;20435;-71
2022/09/02 04:02:38;;;;;;;5.53;5.03;;;13.70;88.00;;;;;;5020833;28;20467;-71
2022/09/02 04:05:04;;;;;;;5.27;4.10;;;13.60;88.30;;;;;;5029097;28;20510;-72
2022/09/02 04:07:30;;;;;;;7.80;4.90;;;13.60;88.40;;;;;;5030883;28;20466;-72
2022/09/02 04:09:56;;;;;;;5.77;4.70;;;13.60;88.60;;;;;;5012793;28;20435;-73
2022/09/02 04:12:22;;;;;;;6.73;5.07;;;13.60;88.70;;;;;;5028336;28;20558;-72
2022/09/02 04:14:48;;;;;;;7.07;4.93;;;13.60;88.70;;;;;;5029136;28;20190;-73
2022/09/02 04:17:14;;;;;;;5.40;4.77;;;13.60;88.90;;;;;;5029338;28;20423;-72
2022/09/02 04:19:39;;;;;;;5.70;5.00;;;13.60;88.70;;;;;;5026983;28;20421;-68
2022/09/02 04:22:06;;;;;;;5.07;4.70;;;13.60;88.40;;;;;;5030138;28;20239;-71
2022/09/02 04:24:33;;;;;;;7.60;4.53;;;13.60;88.60;;;;;;5025134;28;20671;-71
2022/09/02 04:27:00;;;;;;;8.10;4.27;;;13.50;88.40;;;;;;5031608;28;20523;-72
2022/09/02 04:29:25;;;;;;;6.93;5.00;;;13.50;88.60;;;;;;5005967;28;21232;-73
2022/09/02 04:31:52;;;;;;;7.70;5.70;;;13.50;88.60;;;;;;5027874;28;20466;-70
2022/09/02 04:34:18;;;;;;;6.27;5.07;;;13.40;88.90;;;;;;5027088;28;20272;-71
2022/09/02 04:36:44;;;;;;;6.33;5.03;;;13.40;89.20;;;;;;5028940;28;20428;-70
2022/09/02 04:39:09;;;;;;;7.23;5.40;;;13.50;89.30;;;;;;5024106;28;20468;-72
2022/09/02 04:41:36;;;;;;;5.87;4.70;;;13.50;89.20;;;;;;5030354;28;20221;-71
2022/09/02 04:44:02;;;;;;;7.33;5.60;;;13.50;89.20;;;;;;5032195;28;20199;-72
2022/09/02 04:46:28;;;;;;;6.43;5.47;;;13.50;89.20;;;;;;5032563;28;20520;-73
2022/09/02 04:48:55;;;;;;;9.53;5.43;;;13.50;89.50;;;;;;5030378;28;20463;-70
2022/09/02 04:51:24;;;;;;;6.47;5.60;;;13.50;89.60;;;;;;5030010;28;20217;-72
2022/09/02 04:53:52;;;;;;;7.17;4.97;;;13.60;89.20;;;;;;5030795;28;20876;-74
2022/09/02 04:56:21;;;;;;;8.20;5.93;;;13.50;89.20;;;;;;5036105;28;20889;-75
2022/09/02 04:58:51;;;;;;;5.40;4.70;;;13.50;89.00;;;;;;5036676;28;20965;-74
2022/09/02 05:01:22;;;;;;;6.33;5.50;;;13.40;89.50;;;;;;5034599;28;20836;-74
2022/09/02 05:03:50;;;;;;;7.20;5.27;;;13.50;89.70;;;;;;5038681;28;20903;-73
2022/09/02 05:06:19;;;;;;;9.53;5.53;;;13.50;89.50;;;;;;5034437;28;20420;-74
2022/09/02 05:08:46;;;;;;;5.80;4.93;;;13.60;89.30;;;;;;5036766;28;20946;-73
2022/09/02 05:11:17;;;;;;;7.60;5.57;;;13.60;89.00;;;;;;5037788;28;20463;-73
2022/09/02 05:13:44;;;;;;;8.40;5.10;;;13.60;89.20;;;;;;5032244;28;20486;-72
2022/09/02 05:16:13;;;;;;;9.60;5.80;;;13.60;89.00;;;;;;5029413;28;20419;-71
2022/09/02 05:18:39;;;;;;;5.60;4.67;;;13.60;89.00;;;;;;5029132;28;20476;-72
2022/09/02 05:21:05;;;;;;;8.00;5.20;;;13.60;89.20;;;;;;5028261;28;20547;-72
2022/09/02 05:23:30;;;;;;;6.47;5.00;;;13.70;88.90;;;;;;5026357;28;20652;-72
2022/09/02 05:25:56;;;;;;;7.50;5.13;;;13.70;88.70;;;;;;5030715;28;20510;-70
2022/09/02 05:28:22;;;;;;;6.70;4.70;;;13.70;88.60;;;;;;5028340;28;20185;-71
2022/09/02 05:30:47;;;;;;;5.13;4.70;;;13.70;88.70;;;;;;5030841;28;20647;-71
2022/09/02 05:33:14;;;;;;;7.63;4.93;;;13.70;88.70;;;;;;5027980;28;20281;-71
2022/09/02 05:35:41;;;;;;;6.03;5.60;;;13.80;88.40;;;;;;5013596;28;20193;-70
2022/09/02 05:38:07;;;;;;;8.03;5.60;;;13.80;88.30;;;;;;5030648;28;20529;-71
2022/09/02 05:40:35;;;;;;;8.20;5.50;;;13.80;88.30;;;;;;5029800;28;20758;-73
2022/09/02 05:43:00;;;;;;;9.30;5.97;;;13.90;88.30;;;;;;5025658;28;20484;-73
2022/09/02 05:45:26;;;;;;;8.40;5.23;;;13.90;88.00;;;;;;5029891;28;20480;-72
2022/09/02 05:47:52;;;;;;;7.30;5.50;;;13.90;88.00;;;;;;5026524;28;20196;-72
2022/09/02 05:50:17;;;;;;;7.63;5.67;;;13.90;88.00;;;;;;5025715;28;20661;-73
2022/09/02 05:52:44;;;;;;;8.20;6.03;;;13.90;88.00;;;;;;5020529;28;20738;-74
2022/09/02 05:55:10;;;;;;;9.00;5.23;;;13.90;88.00;;;;;;5028633;28;20184;-70
2022/09/02 05:57:35;;;;;;;8.70;5.30;;;14.00;88.00;;;;;;5028599;28;20471;-71
2022/09/02 06:00:06;;;;;;;6.97;5.70;;;14.00;87.70;;;;;;5032815;28;20484;-71
2022/09/02 06:02:32;;;;;;;6.57;5.57;;;14.10;87.80;;;;;;5016578;28;20206;-72
2022/09/02 06:04:57;;;;;;;7.40;5.33;;;14.10;87.70;;;;;;5034498;28;20434;-71
2022/09/02 06:07:25;;;;;;;7.90;6.00;;;14.10;87.80;;;;;;5037621;28;20273;-72
2022/09/02 06:09:51;;;;;;;7.80;5.40;;;14.20;87.70;;;;;;5037182;28;20197;-71
2022/09/02 06:12:19;;;;;;;8.80;5.97;;;14.20;87.80;;;;;;5028847;28;21509;-73
2022/09/02 06:14:46;;;;;;;7.63;5.90;;;14.20;87.40;;;;;;5034866;28;20782;-71
2022/09/02 06:17:12;;;;;;;9.00;6.50;;;14.30;87.10;;;;;;5035301;28;20435;-72
2022/09/02 06:19:38;;;;;;;10.70;7.43;;;14.40;86.80;;;;;;5034998;28;20460;-71
2022/09/02 06:22:04;;;;;;;14.27;7.20;;;14.40;86.20;;;;;;5029003;28;20475;-70
2022/09/02 06:24:30;;;;;;;11.77;7.60;;;14.50;86.20;;;;;;5032199;28;20241;-71
2022/09/02 06:26:56;;;;;;;12.33;6.40;;;14.50;86.20;;;;;;5036083;28;20429;-72
2022/09/02 06:29:24;;;;;;;9.30;6.57;;;14.60;85.90;;;;;;5015955;28;20424;-71
2022/09/02 06:31:50;;;;;;;10.60;6.80;;;14.70;85.50;;;;;;5026985;28;20472;-72
2022/09/02 06:34:19;;;;;;;8.17;6.80;;;14.70;85.50;;;;;;5031075;28;20914;-71
2022/09/02 06:36:46;;;;;;;10.17;7.53;;;14.70;85.60;;;;;;5031864;28;20190;-70
2022/09/02 06:39:15;;;;;;;10.47;7.10;;;14.80;85.50;;;;;;5031578;28;20467;-71
2022/09/02 06:41:42;;;;;;;10.00;7.20;;;14.90;85.60;;;;;;5027345;28;20471;-71
2022/09/02 06:44:09;;;;;;;10.20;7.60;;;14.90;85.60;;;;;;5013254;28;20876;-72
2022/09/02 06:46:38;;;;;;;13.10;7.67;;;15.00;85.70;;;;;;5031635;28;20440;-70
2022/09/02 06:49:05;;;;;;;12.97;7.80;;;15.00;85.70;;;;;;5031058;28;20534;-72
2022/09/02 06:51:37;;;;;;;13.80;7.90;;;15.10;85.70;;;;;;5028969;28;20474;-70
2022/09/02 06:54:04;;;;;;;16.30;8.10;;;15.10;85.50;;;;;;5031721;28;20413;-73
2022/09/02 06:56:30;;;;;;;16.50;7.17;;;15.20;85.00;;;;;;5032373;28;20593;-72
2022/09/02 06:58:56;;;;;;;13.13;7.70;;;15.30;84.60;;;;;;5032428;28;20589;-72
2022/09/02 07:01:25;;;;;;;11.60;7.03;;;15.50;84.10;;;;;;5029548;28;20600;-70
2022/09/02 07:06:38;;;;;;;12.10;6.67;;;15.60;80.80;;;;;;5035015;28;20480;-71
2022/09/02 07:09:08;;;;;;;9.40;5.77;;;15.80;80.80;;;;;;5031148;28;20520;-71
2022/09/02 07:11:35;;;;;;;9.20;6.03;;;15.90;80.30;;;;;;5029403;28;21061;-72
2022/09/02 07:14:01;;;;;;;10.07;6.13;;;16.10;78.70;;;;;;5031584;28;20842;-71
2022/09/02 07:16:34;;;;;;;7.20;4.90;;;16.20;78.00;;;;;;5031224;28;20428;-73
2022/09/02 07:19:00;;;;;;;6.37;5.40;;;16.30;77.80;;;;;;5030574;28;20487;-72
2022/09/02 07:21:29;;;;;;;8.73;6.23;;;16.50;77.10;;;;;;5007989;28;20567;-71
2022/09/02 07:23:58;;;;;;;7.33;5.53;;;16.60;76.50;;;;;;5029461;28;20188;-71
2022/09/02 07:26:25;;;;;;;6.80;5.37;;;16.70;76.10;;;;;;5029555;28;20489;-72
2022/09/02 07:28:51;;;;;;;9.10;6.10;;;16.80;76.10;;;;;;5030849;28;20435;-72
2022/09/02 07:31:17;;;;;;;9.80;5.40;;;16.90;75.20;;;;;;5028534;28;20509;-71
2022/09/02 07:33:44;;;;;;;7.07;4.73;;;17.00;75.20;;;;;;5029496;28;20425;-72
2022/09/02 07:36:11;;;;;;;6.20;4.77;;;17.10;74.50;;;;;;5023427;28;20881;-72
2022/09/02 07:38:37;;;;;;;6.07;5.57;;;17.20;74.30;;;;;;5012474;28;20582;-71
2022/09/02 07:41:04;;;;;;;6.10;4.67;;;17.20;73.90;;;;;;5027645;28;20447;-72
2022/09/02 07:43:32;;;;;;;7.17;5.70;;;17.30;73.30;;;;;;5026594;28;20436;-70
2022/09/02 07:45:59;;;;;;;6.07;5.17;;;17.40;73.30;;;;;;5030124;28;20432;-72
2022/09/02 07:48:26;;;;;;;5.20;4.40;;;17.50;72.90;;;;;;5029775;28;20443;-72
2022/09/02 07:50:52;;;;;;;6.03;4.77;;;17.60;72.10;;;;;;5026740;28;20432;-73
2022/09/02 07:53:19;;;;;;;5.83;4.80;;;17.60;71.80;;;;;;5028826;28;20493;-70
2022/09/02 07:55:46;;;;;;;4.93;4.07;;;17.70;71.40;;;;;;5028601;28;20200;-72
2022/09/02 07:58:13;;;;;;;11.20;4.90;;;17.80;71.40;;;;;;5011725;28;20522;-71
2022/09/02 08:00:38;;;;;;;5.70;4.47;;;17.80;70.70;;;;;;5029349;28;20483;-70
2022/09/02 08:03:05;;;;;;;7.17;4.40;;;17.90;70.50;;;;;;5024861;28;20878;-73
2022/09/02 08:05:32;;;;;;;5.13;4.20;;;18.00;70.40;;;;;;5030251;28;20194;-73
2022/09/02 08:07:59;;;;;;;4.70;4.10;;;18.00;69.70;;;;;;5026612;28;20944;-72
2022/09/02 08:10:28;;;;;;;6.70;5.10;;;18.00;68.90;;;;;;5030018;28;20434;-71
2022/09/02 08:12:56;;;;;;;4.60;3.90;;;18.10;69.40;;;;;;5025798;28;20568;-72
2022/09/02 08:15:23;;;;;;;5.60;4.20;;;18.20;69.20;;;;;;5029749;28;20956;-72
2022/09/02 08:17:49;;;;;;;5.60;3.80;;;18.30;68.20;;;;;;5029447;28;20957;-72
2022/09/02 08:20:16;;;;;;;4.80;4.17;;;18.40;68.20;;;;;;5011912;28;20444;-71
2022/09/02 08:22:42;;;;;;;5.20;3.90;;;18.50;68.20;;;;;;5024682;28;20691;-71
2022/09/02 08:25:09;;;;;;;5.10;4.27;;;18.50;67.50;;;;;;5029184;28;20455;-73
2022/09/02 08:27:35;;;;;;;4.73;3.43;;;18.50;67.70;;;;;;5026004;28;20434;-71
2022/09/02 08:30:01;;;;;;;6.03;3.73;;;18.70;68.20;;;;;;5022564;28;20425;-70
2022/09/02 08:32:28;;;;;;;5.53;3.50;;;18.80;68.00;;;;;;5022757;28;20481;-71
2022/09/02 08:34:53;;;;;;;4.70;3.30;;;18.80;67.20;;;;;;5029026;28;20527;-72
2022/09/02 08:37:19;;;;;;;5.90;3.70;;;18.90;66.90;;;;;;5029465;28;20531;-71
2022/09/02 08:39:47;;;;;;;5.03;3.30;;;18.90;67.00;;;;;;5029351;28;20594;-72
2022/09/02 08:42:26;;;;;;;4.70;3.47;;;19.00;66.70;;;;;;5021410;28;20206;-70
2022/09/02 08:44:58;;;;;;;4.37;3.27;;;19.10;66.70;;;;;;5028963;28;20493;-70
2022/09/02 08:47:30;;;;;;;4.63;3.70;;;19.20;66.00;;;;;;5023722;28;20479;-71
2022/09/02 08:50:02;;;;;;;5.30;3.40;;;19.40;65.80;;;;;;5028318;28;20541;-72
2022/09/02 08:53:03;;;;;;;4.90;3.07;;;19.40;65.30;;;;;;5021426;28;20546;-72
2022/09/02 08:55:38;;;;;;;5.43;3.37;;;19.40;64.50;;;;;;4978997;28;20435;-71
2022/09/02 08:58:04;;;;;;;4.90;3.43;;;19.40;63.80;;;;;;5028981;28;20463;-73
2022/09/02 09:00:37;;;;;;;5.20;3.10;;;19.50;64.20;;;;;;5026967;28;21027;-72
2022/09/02 09:03:22;;;;;;;3.50;2.87;;;19.70;63.50;;;;;;5019571;28;20197;-73
2022/09/02 09:05:52;;;;;;;6.77;3.60;;;19.60;63.10;;;;;;5008731;28;20529;-73
2022/09/02 09:08:30;;;;;;;5.23;4.10;;;19.80;63.10;;;;;;5026069;28;20890;-73
2022/09/02 09:11:22;;;;;;;4.37;3.20;;;19.90;62.60;;;;;;5022584;28;20444;-73
2022/09/02 09:13:53;;;;;;;4.13;3.10;;;20.00;62.60;;;;;;4996114;28;20434;-74
2022/09/02 09:16:33;;;;;;;6.60;3.67;;;20.00;61.70;;;;;;5016718;28;20542;-74
2022/09/02 09:19:15;;;;;;;4.67;3.20;;;20.00;61.00;;;;;;5023264;28;20473;-71
2022/09/02 09:21:42;;;;;;;3.27;3.10;;;20.00;60.60;;;;;;5021733;28;20452;-73
2022/09/02 09:24:35;;;;;;;4.03;2.83;;;19.90;61.50;;;;;;5023773;28;20416;-72
2022/09/02 09:27:07;;;;;;;8.77;4.50;;;20.10;61.20;;;;;;5037856;28;20416;-71
2022/09/02 09:29:35;;;;;;;3.63;3.00;;;20.10;61.20;;;;;;5030376;28;20428;-72
2022/09/02 09:32:01;;;;;;;8.47;3.00;;;20.20;59.30;;;;;;5030262;28;20464;-73
2022/09/02 09:34:52;;;;;;;4.20;2.87;;;20.20;59.50;;;;;;5033052;28;20507;-71
2022/09/02 09:37:38;;;;;;;5.77;3.20;;;20.30;58.50;;;;;;5030015;28;20537;-73
2022/09/02 09:40:31;;;;;;;3.77;3.13;;;20.40;58.90;;;;;;5033592;28;20424;-72
2022/09/02 09:43:05;;;;;;;2.93;2.73;;;20.50;58.10;;;;;;5026145;28;20545;-72
2022/09/02 09:45:34;;;;;;;3.20;2.60;;;20.50;58.20;;;;;;5014464;28;20450;-73
2022/09/02 09:48:16;;;;;;;4.40;2.70;;;20.60;56.10;;;;;;5032636;28;20421;-75
2022/09/02 09:50:43;;;;;;;3.50;3.10;;;20.60;56.00;;;;;;5031492;28;20458;-71
2022/09/02 09:53:16;;;;;;;5.73;3.00;;;20.60;56.10;;;;;;5037528;28;20478;-71
2022/09/02 09:56:06;;;;;;;5.03;2.83;;;20.70;55.20;;;;;;5033548;28;20421;-72
2022/09/02 09:58:37;;;;;;;3.00;2.50;;;20.70;55.70;;;;;;5010045;28;20827;-73
2022/09/02 10:01:18;;;;;;;4.70;2.80;;;20.80;54.60;;;;;;5032354;28;20464;-71
2022/09/02 10:03:58;;;;;;;4.57;2.60;;;20.80;54.90;;;;;;5030709;28;20427;-73
2022/09/02 10:06:32;;;;;;;4.93;2.43;;;20.90;54.80;;;;;;5032314;28;20420;-71
2022/09/02 10:09:18;;;;;;;3.80;2.60;;;20.90;53.00;;;;;;5032426;28;20427;-71
2022/09/02 10:12:01;;;;;;;2.97;2.50;;;20.90;53.00;;;;;;5008146;28;20475;-72
2022/09/02 10:14:38;;;;;;;5.53;2.80;;;20.90;53.30;;;;;;5029260;28;20455;-72
2022/09/02 10:17:23;;;;;;;3.33;2.67;;;21.10;52.80;;;;;;5024630;28;20508;-73
2022/09/02 10:20:11;;;;;;;3.10;2.30;;;21.20;52.10;;;;;;5030665;28;20471;-73
2022/09/02 10:22:54;;;;;;;3.90;2.30;;;21.10;51.60;;;;;;5029591;28;20460;-72
2022/09/02 10:25:41;;;;;;;3.43;2.70;;;21.10;50.90;;;;;;5031144;28;20413;-73
2022/09/02 10:28:16;;;;;;;3.53;2.80;;;21.20;50.60;;;;;;5034407;28;20422;-72
2022/09/02 10:31:09;;;;;;;3.23;2.60;;;21.30;51.00;;;;;;5032175;28;20458;-73
2022/09/02 10:33:39;;;;;;;3.47;2.60;;;21.40;49.70;;;;;;5032564;28;20471;-73
2022/09/02 10:36:31;;;;;;;2.50;2.30;;;21.50;49.80;;;;;;5030615;28;21016;-72
2022/09/02 10:39:27;;;;;;;2.80;2.57;;;21.50;48.60;;;;;;5001865;28;20481;-74
2022/09/02 10:42:02;;;;;;;2.50;2.30;;;21.50;49.10;;;;;;5028211;28;21012;-71
2022/09/02 10:44:38;;;;;;;4.90;2.10;;;21.80;48.60;;;;;;5027055;28;20766;-72
2022/09/02 10:47:17;;;;;;;4.60;2.33;;;22.20;46.90;;;;;;5032147;28;20901;-72
2022/09/02 10:49:46;;;;;;;3.40;2.40;;;22.40;46.90;;;;;;5033092;28;20411;-71
2022/09/02 10:52:37;;;;;;;3.30;2.63;;;22.60;45.90;;;;;;5026255;28;20450;-72
2022/09/02 10:55:14;;;;;;;2.73;2.50;;;22.80;45.90;;;;;;5032015;28;20762;-72
2022/09/02 10:57:45;;;;;;;3.10;2.53;;;23.10;46.20;;;;;;5028552;28;20831;-70
2022/09/02 11:00:19;;;;;;;3.10;2.13;;;23.50;45.40;;;;;;5026657;28;20426;-72
2022/09/02 11:03:09;;;;;;;3.60;2.40;;;23.80;45.30;;;;;;5021487;28;20467;-73
2022/09/02 11:05:56;;;;;;;4.00;2.73;;;24.10;43.00;;;;;;5032390;28;20487;-71
2022/09/02 11:08:26;;;;;;;2.73;2.10;;;24.20;42.80;;;;;;5031320;28;20417;-72
2022/09/02 11:10:51;;;;;;;2.77;2.13;;;24.00;43.10;;;;;;5029600;28;20429;-72
2022/09/02 11:13:25;;;;;;;2.77;2.20;;;24.20;42.80;;;;;;5025995;28;20462;-71
2022/09/02 11:16:15;;;;;;;3.20;2.30;;;24.30;42.00;;;;;;5030219;28;20197;-72
2022/09/02 11:18:51;;;;;;;6.30;2.47;;;24.00;42.80;;;;;;5031136;28;20470;-71
2022/09/02 11:21:53;;;;;;;2.50;2.07;;;24.30;42.40;;;;;;5028131;28;20463;-70
2022/09/02 11:24:29;;;;;;;3.90;2.17;;;24.40;42.80;;;;;;5029342;28;20434;-72
2022/09/02 11:27:13;;;;;;;3.03;2.70;;;24.60;42.30;;;;;;5016968;28;20429;-71
2022/09/02 11:30:03;;;;;;;3.80;2.20;;;24.60;41.80;;;;;;5029316;28;20431;-73
2022/09/02 11:32:42;;;;;;;3.10;2.10;;;24.80;41.40;;;;;;5023548;28;20526;-72
2022/09/02 11:35:13;;;;;;;2.43;2.20;;;25.00;41.40;;;;;;5023286;28;20426;-71
2022/09/02 11:37:56;;;;;;;3.20;2.20;;;24.80;41.20;;;;;;5027774;28;20883;-71
2022/09/02 11:40:31;;;;;;;2.63;2.43;;;25.20;40.80;;;;;;5024995;28;20420;-72
2022/09/02 11:43:15;;;;;;;3.00;2.70;;;25.50;39.50;;;;;;5024856;28;20454;-72
2022/09/02 11:45:55;;;;;;;2.30;1.90;;;25.30;40.20;;;;;;5024717;28;20447;-73
2022/09/02 11:48:29;;;;;;;2.43;2.30;;;25.40;39.50;;;;;;5029616;28;20430;-71
2022/09/02 11:51:31;;;;;;;3.00;2.50;;;25.90;39.10;;;;;;5028059;28;20427;-73
2022/09/02 11:54:00;;;;;;;5.57;2.70;;;26.00;39.00;;;;;;5028162;28;20509;-71
2022/09/02 11:56:38;;;;;;;3.07;2.37;;;26.20;38.60;;;;;;5028822;28;20434;-72
2022/09/02 11:59:05;;;;;;;5.60;2.77;;;25.50;39.80;;;;;;5011319;28;20471;-73
2022/09/02 12:01:46;;;;;;;4.87;2.40;;;25.30;40.60;;;;;;5025667;28;20463;-72
2022/09/02 12:04:11;;;;;;;2.90;2.60;;;25.60;40.20;;;;;;5027138;28;20502;-71
2022/09/02 12:07:07;;;;;;;4.07;2.37;;;25.50;40.00;;;;;;5029374;28;20415;-72
2022/09/02 12:09:58;;;;;;;3.43;2.43;;;25.80;39.60;;;;;;5023307;28;20287;-72
2022/09/02 12:12:37;;;;;;;4.40;2.57;;;26.10;39.50;;;;;;5020881;28;20466;-71
2022/09/02 12:15:06;;;;;;;2.70;2.20;;;26.10;38.60;;;;;;5028744;28;20421;-72
2022/09/02 12:17:48;;;;;;;4.37;2.90;;;25.70;39.20;;;;;;5027226;28;20431;-73
2022/09/02 12:20:36;;;;;;;15.90;2.90;;;25.90;39.90;;;;;;5029092;28;20423;-72
2022/09/02 12:23:02;;;;;;;2.80;2.40;;;26.10;39.00;;;;;;5021020;28;20479;-73
2022/09/02 12:25:36;;;;;;;6.30;3.00;;;25.80;39.80;;;;;;5028017;28;20421;-71
2022/09/02 12:28:24;;;;;;;3.80;2.50;;;25.90;40.40;;;;;;5026567;28;20461;-72
2022/09/02 12:31:00;;;;;;;4.00;2.47;;;25.70;40.00;;;;;;5026602;28;20427;-72
2022/09/02 12:33:37;;;;;;;3.70;2.33;;;25.90;39.90;;;;;;5030546;28;20423;-71
2022/09/02 12:36:08;;;;;;;2.93;2.37;;;25.90;39.50;;;;;;5025179;28;20430;-74
2022/09/02 12:38:38;;;;;;;4.13;2.73;;;25.80;40.20;;;;;;5012487;28;20467;-74
2022/09/02 12:41:04;;;;;;;3.40;3.13;;;25.40;40.70;;;;;;5018609;28;20454;-73
2022/09/02 12:43:48;;;;;;;3.67;2.97;;;25.60;40.80;;;;;;4988248;28;1085003;-73
2022/09/02 12:46:27;;;;;;;3.67;3.10;;;25.00;39.90;;;;;;5028551;28;20194;-73
2022/09/02 12:49:28;;;;;;;3.07;2.50;;;24.90;40.70;;;;;;5028424;28;20427;-71
2022/09/02 12:52:01;;;;;;;4.67;2.90;;;25.10;40.60;;;;;;5022675;28;20479;-72
2022/09/02 12:54:38;;;;;;;3.33;2.33;;;24.90;41.20;;;;;;5026364;28;20549;-73
2022/09/02 12:57:06;;;;;;;3.50;2.60;;;24.90;41.40;;;;;;5029336;28;20421;-73
2022/09/02 12:59:34;;;;;;;2.90;2.43;;;25.10;41.20;;;;;;5030140;28;20598;-73
2022/09/02 13:02:09;;;;;;;5.00;2.60;;;25.70;39.00;;;;;;5024494;28;20995;-73
2022/09/02 13:04:51;;;;;;;3.10;2.37;;;26.10;38.60;;;;;;5025501;28;20468;-73
2022/09/02 13:07:34;;;;;;;4.67;2.57;;;26.00;39.90;;;;;;5026351;28;20422;-74